Time;durP1;ratioP1;P1;durP2;ratioP2;P2;SDS_P1;SDS_P2;PMS_P1;PMS_P2;Temp;Humidity;BMP_temperature;BMP_pressure;BME280_temperature;BME280_humidity;BME280_pressure;Samples;Min_cycle;Max_cycle;Signal;HPM_P1;HPM_P2
2022/06/30 00:02:18;;;;;;;7.85;2.65;;;22.50;99.90;;;;;;5034528;28;20033;-86
2022/06/30 00:04:44;;;;;;;7.70;2.58;;;22.50;99.90;;;;;;5034223;28;20397;-85
2022/06/30 00:07:09;;;;;;;6.25;2.67;;;22.50;99.90;;;;;;5034160;28;20481;-86
2022/06/30 00:09:35;;;;;;;7.10;2.83;;;22.50;99.90;;;;;;5034237;28;20029;-85
2022/06/30 00:12:01;;;;;;;6.60;2.65;;;22.50;99.90;;;;;;5034098;28;20029;-85
2022/06/30 00:14:27;;;;;;;6.05;2.20;;;22.50;99.90;;;;;;5034090;28;20500;-85
2022/06/30 00:16:52;;;;;;;5.35;2.30;;;22.50;99.90;;;;;;5034091;28;20022;-85
2022/06/30 00:19:18;;;;;;;5.10;2.70;;;22.40;99.90;;;;;;5034194;28;20120;-86
2022/06/30 00:21:43;;;;;;;3.78;2.30;;;22.50;99.90;;;;;;5035436;28;20026;-86
2022/06/30 00:24:09;;;;;;;7.45;2.70;;;22.40;99.90;;;;;;5033835;28;20394;-85
2022/06/30 00:26:35;;;;;;;6.80;2.55;;;22.40;99.90;;;;;;5033792;28;20025;-86
2022/06/30 00:29:01;;;;;;;6.20;2.83;;;22.40;99.90;;;;;;5033799;28;20032;-85
2022/06/30 00:31:26;;;;;;;6.47;2.70;;;22.40;99.90;;;;;;5035007;28;20101;-85
2022/06/30 00:33:52;;;;;;;5.03;2.70;;;22.40;99.90;;;;;;5033587;28;20021;-86
2022/06/30 00:36:18;;;;;;;4.05;2.22;;;22.40;99.90;;;;;;5033478;28;20095;-85
2022/06/30 00:38:43;;;;;;;6.10;2.88;;;22.40;99.90;;;;;;5035117;28;20025;-86
2022/06/30 00:41:10;;;;;;;5.00;2.42;;;22.40;99.90;;;;;;5033522;28;20475;-86
2022/06/30 00:43:46;;;;;;;3.75;2.85;;;22.40;99.90;;;;;;5033520;28;20026;-86
2022/06/30 00:46:13;;;;;;;5.50;2.40;;;22.40;99.90;;;;;;5034704;28;20057;-86
2022/06/30 00:48:39;;;;;;;6.30;3.10;;;22.40;99.90;;;;;;5034675;28;20029;-85
2022/06/30 00:51:06;;;;;;;4.43;2.55;;;22.40;99.90;;;;;;5034651;28;20492;-86
2022/06/30 00:53:35;;;;;;;3.97;2.60;;;22.30;99.90;;;;;;5033330;28;20056;-85
2022/06/30 00:56:06;;;;;;;3.90;2.70;;;22.30;99.90;;;;;;5033305;28;20075;-86
2022/06/30 00:58:37;;;;;;;6.47;2.78;;;22.30;99.90;;;;;;5034841;28;20155;-86
2022/06/30 01:01:04;;;;;;;4.72;2.22;;;22.30;99.90;;;;;;5033257;28;20028;-86
2022/06/30 01:03:32;;;;;;;6.13;2.88;;;22.30;99.90;;;;;;5033126;28;20025;-86
2022/06/30 01:06:03;;;;;;;6.75;2.38;;;22.30;99.90;;;;;;5033097;28;20025;-85
2022/06/30 01:08:30;;;;;;;5.55;2.67;;;22.30;99.90;;;;;;5034259;28;20021;-85
2022/06/30 01:13:42;;;;;;;6.28;2.80;;;22.30;99.90;;;;;;5034780;28;20040;-86
2022/06/30 01:16:08;;;;;;;5.38;2.35;;;22.30;99.90;;;;;;5032761;28;20025;-86
2022/06/30 01:18:34;;;;;;;4.05;2.45;;;22.20;99.90;;;;;;5032797;28;20021;-85
2022/06/30 01:21:00;;;;;;;4.53;2.13;;;22.20;99.90;;;;;;5034058;28;20029;-86
2022/06/30 01:23:26;;;;;;;3.05;2.20;;;22.30;99.90;;;;;;5032723;28;20022;-86
2022/06/30 01:25:52;;;;;;;6.28;2.80;;;22.20;99.90;;;;;;5032924;28;20499;-86
2022/06/30 01:28:19;;;;;;;7.07;2.67;;;22.20;99.90;;;;;;5032595;28;20404;-85
2022/06/30 01:30:44;;;;;;;8.52;2.45;;;22.20;99.90;;;;;;5033848;28;20064;-86
2022/06/30 01:33:10;;;;;;;4.63;2.95;;;22.20;99.90;;;;;;5032042;28;20052;-85
2022/06/30 01:35:36;;;;;;;5.20;2.58;;;22.20;99.90;;;;;;5032332;28;20083;-85
2022/06/30 01:38:02;;;;;;;5.63;3.17;;;22.20;99.90;;;;;;5032420;28;20087;-86
2022/06/30 01:40:31;;;;;;;5.07;2.55;;;22.20;99.90;;;;;;5033703;28;20044;-86
2022/06/30 01:42:57;;;;;;;6.32;2.40;;;22.20;99.90;;;;;;5032418;28;20052;-85
2022/06/30 01:45:23;;;;;;;4.90;2.47;;;22.20;99.90;;;;;;5032301;28;20028;-86
2022/06/30 01:47:50;;;;;;;5.43;2.13;;;22.20;99.90;;;;;;5032252;28;20056;-86
2022/06/30 01:50:30;;;;;;;9.93;2.85;;;22.10;99.90;;;;;;5032309;28;20579;-86
2022/06/30 01:52:56;;;;;;;7.10;2.40;;;22.10;99.90;;;;;;5033557;28;20030;-85
2022/06/30 01:55:23;;;;;;;5.68;2.50;;;22.20;99.90;;;;;;5032230;28;20072;-85
2022/06/30 01:57:49;;;;;;;7.93;2.88;;;22.10;99.90;;;;;;5032225;28;20025;-86
2022/06/30 02:00:18;;;;;;;5.60;2.55;;;22.10;99.90;;;;;;5033598;28;20040;-86
2022/06/30 02:02:44;;;;;;;3.42;2.38;;;22.10;99.90;;;;;;5033379;28;20029;-85
2022/06/30 02:05:11;;;;;;;6.97;2.55;;;22.10;99.90;;;;;;5032123;28;20061;-86
2022/06/30 02:07:39;;;;;;;5.07;2.38;;;22.10;99.90;;;;;;5032021;28;20091;-85
2022/06/30 02:10:07;;;;;;;5.38;2.42;;;22.10;99.90;;;;;;5032030;28;20026;-85
2022/06/30 02:12:45;;;;;;;5.30;2.40;;;22.10;99.90;;;;;;5033268;28;20029;-86
2022/06/30 02:15:12;;;;;;;4.68;2.33;;;22.10;99.90;;;;;;5032026;28;20026;-86
2022/06/30 02:17:38;;;;;;;4.50;2.42;;;22.10;99.90;;;;;;5032179;28;20496;-85
2022/06/30 02:20:07;;;;;;;6.97;2.47;;;22.00;99.90;;;;;;5032224;28;20028;-85
2022/06/30 02:22:36;;;;;;;4.43;2.30;;;22.00;99.90;;;;;;5031917;28;20392;-86
2022/06/30 02:25:03;;;;;;;5.68;2.50;;;22.00;99.90;;;;;;5032044;28;20029;-86
2022/06/30 02:27:29;;;;;;;6.03;2.50;;;22.00;99.90;;;;;;5031780;28;20032;-86
2022/06/30 02:29:54;;;;;;;4.93;2.50;;;22.00;99.90;;;;;;5033127;28;20385;-85
2022/06/30 02:32:21;;;;;;;3.50;2.25;;;22.00;99.90;;;;;;5032269;28;20421;-86
2022/06/30 02:34:48;;;;;;;4.65;2.78;;;22.00;99.90;;;;;;5031687;28;20108;-86
2022/06/30 02:37:15;;;;;;;4.82;2.40;;;22.00;99.90;;;;;;5033076;28;20079;-86
2022/06/30 02:39:41;;;;;;;2.53;2.25;;;21.90;99.90;;;;;;5031787;28;20028;-85
2022/06/30 02:42:07;;;;;;;8.98;2.65;;;22.00;99.90;;;;;;5033000;28;20026;-86
2022/06/30 02:44:32;;;;;;;9.50;2.65;;;22.00;99.90;;;;;;5033739;28;20025;-85
2022/06/30 02:46:58;;;;;;;5.38;2.65;;;21.90;99.90;;;;;;5035618;28;20389;-87
2022/06/30 02:49:24;;;;;;;3.85;2.30;;;21.90;99.90;;;;;;5035656;28;20188;-86
2022/06/30 02:51:49;;;;;;;5.28;2.30;;;21.90;99.90;;;;;;5035875;28;20037;-86
2022/06/30 02:54:16;;;;;;;7.65;2.40;;;21.90;99.90;;;;;;5035576;28;20108;-86
2022/06/30 02:56:42;;;;;;;4.97;2.40;;;21.90;99.90;;;;;;5036782;28;20164;-85
2022/06/30 02:59:08;;;;;;;6.40;2.40;;;21.90;99.90;;;;;;5035447;28;20498;-85
2022/06/30 03:01:34;;;;;;;4.65;2.47;;;21.90;99.90;;;;;;5035391;28;20029;-85
2022/06/30 03:04:01;;;;;;;5.05;2.63;;;21.90;99.90;;;;;;5035321;28;20032;-86
2022/06/30 03:06:28;;;;;;;5.47;2.55;;;21.90;99.90;;;;;;5035234;28;20028;-86
2022/06/30 03:08:58;;;;;;;5.47;2.22;;;21.90;99.90;;;;;;5035324;28;20030;-86
2022/06/30 03:11:23;;;;;;;7.80;2.38;;;21.90;99.90;;;;;;5035226;28;20028;-86
2022/06/30 03:13:49;;;;;;;6.55;2.38;;;21.90;99.90;;;;;;5036728;28;20022;-86
2022/06/30 03:16:17;;;;;;;4.53;2.22;;;21.90;99.90;;;;;;5035155;28;20057;-86
2022/06/30 03:18:43;;;;;;;3.30;2.45;;;21.90;99.90;;;;;;5035092;28;20060;-86
2022/06/30 03:21:08;;;;;;;5.50;2.70;;;21.80;99.90;;;;;;5035068;28;20022;-86
2022/06/30 03:23:34;;;;;;;5.85;2.65;;;21.80;99.90;;;;;;5036291;28;20030;-86
2022/06/30 03:26:00;;;;;;;7.22;2.47;;;21.80;99.90;;;;;;5036232;28;20096;-86
2022/06/30 03:28:26;;;;;;;6.78;2.38;;;21.80;99.90;;;;;;5034758;28;20029;-86
2022/06/30 03:30:52;;;;;;;8.27;2.40;;;21.80;99.90;;;;;;5036125;28;20033;-86
2022/06/30 03:33:19;;;;;;;4.38;2.55;;;21.80;99.90;;;;;;5035267;28;20025;-86
2022/06/30 03:35:45;;;;;;;4.03;2.67;;;21.80;99.90;;;;;;5034576;28;20049;-85
2022/06/30 03:38:12;;;;;;;4.57;2.25;;;21.80;99.90;;;;;;5034770;28;20025;-86
2022/06/30 03:40:38;;;;;;;8.15;2.50;;;21.80;99.90;;;;;;5034680;28;20051;-86
2022/06/30 03:43:04;;;;;;;7.60;2.63;;;21.70;99.90;;;;;;5034640;28;20038;-86
2022/06/30 03:45:30;;;;;;;4.90;2.40;;;21.80;99.90;;;;;;5034611;28;20100;-86
2022/06/30 03:47:56;;;;;;;8.93;2.55;;;21.70;99.90;;;;;;5034453;28;20030;-86
2022/06/30 03:50:22;;;;;;;4.43;1.88;;;21.70;99.90;;;;;;5034523;28;20029;-86
2022/06/30 03:52:47;;;;;;;6.50;2.50;;;21.70;99.90;;;;;;5034671;28;20032;-85
2022/06/30 03:55:13;;;;;;;6.82;2.45;;;21.70;99.90;;;;;;5034028;28;20017;-85
2022/06/30 03:57:39;;;;;;;7.85;2.30;;;21.70;99.90;;;;;;5035652;28;20506;-86
2022/06/30 04:00:06;;;;;;;4.07;2.40;;;21.70;99.90;;;;;;5034342;28;20036;-85
2022/06/30 04:02:32;;;;;;;7.22;2.60;;;21.70;99.90;;;;;;5034845;28;20432;-86
2022/06/30 04:04:58;;;;;;;11.77;2.63;;;21.70;99.90;;;;;;5034250;28;20030;-86
2022/06/30 04:07:24;;;;;;;5.60;2.30;;;21.70;99.90;;;;;;5034131;28;20036;-86
2022/06/30 04:09:50;;;;;;;3.47;2.10;;;21.70;99.90;;;;;;5034191;28;20473;-86
2022/06/30 04:12:16;;;;;;;6.68;2.33;;;21.70;99.90;;;;;;5035419;28;20021;-85
2022/06/30 04:14:41;;;;;;;5.47;2.40;;;21.70;99.90;;;;;;5035377;28;20033;-86
2022/06/30 04:17:07;;;;;;;4.97;2.50;;;21.70;99.90;;;;;;5034013;28;20108;-85
2022/06/30 04:19:33;;;;;;;7.75;2.60;;;21.70;99.90;;;;;;5033974;28;20025;-85
2022/06/30 04:21:59;;;;;;;4.57;2.17;;;21.70;99.90;;;;;;5035479;28;20029;-86
2022/06/30 04:24:25;;;;;;;8.50;2.53;;;21.60;99.90;;;;;;5033870;28;20396;-86
2022/06/30 04:26:50;;;;;;;6.05;2.33;;;21.60;99.90;;;;;;5033826;28;20396;-86
2022/06/30 04:29:16;;;;;;;3.95;2.42;;;21.60;99.90;;;;;;5035070;28;20017;-86
2022/06/30 04:34:26;;;;;;;5.10;2.40;;;21.60;99.90;;;;;;5035479;28;20049;-86
2022/06/30 04:36:51;;;;;;;7.30;2.60;;;21.60;99.90;;;;;;5035785;28;20057;-86
2022/06/30 04:39:17;;;;;;;4.63;2.45;;;21.60;99.90;;;;;;5034891;28;20021;-86
2022/06/30 04:41:43;;;;;;;8.05;2.40;;;21.60;99.90;;;;;;5033520;28;20026;-85
2022/06/30 04:44:08;;;;;;;3.70;2.47;;;21.60;99.90;;;;;;5033428;28;20472;-85
2022/06/30 04:46:34;;;;;;;4.35;2.58;;;21.60;99.90;;;;;;5033302;28;20032;-85
2022/06/30 04:49:00;;;;;;;5.72;2.70;;;21.60;99.90;;;;;;5033395;28;20451;-86
2022/06/30 04:51:26;;;;;;;3.80;2.80;;;21.60;99.90;;;;;;5033412;28;20079;-86
2022/06/30 04:53:52;;;;;;;3.83;3.15;;;21.60;99.90;;;;;;5034853;28;20026;-86
2022/06/30 04:56:18;;;;;;;4.15;2.88;;;21.60;99.90;;;;;;5033272;28;20388;-85
2022/06/30 04:58:45;;;;;;;7.43;3.20;;;21.60;99.90;;;;;;5033244;28;20072;-86
2022/06/30 05:01:11;;;;;;;7.43;2.83;;;21.60;99.90;;;;;;5033186;28;20156;-85
2022/06/30 05:03:37;;;;;;;7.60;2.72;;;21.60;99.90;;;;;;5034736;28;20044;-86
2022/06/30 05:06:04;;;;;;;8.77;3.40;;;21.60;99.90;;;;;;5032614;28;20117;-86
2022/06/30 05:08:32;;;;;;;4.70;2.83;;;21.60;99.90;;;;;;5033981;28;20017;-86
2022/06/30 05:10:58;;;;;;;5.88;2.67;;;21.60;99.90;;;;;;5033013;28;20029;-85
2022/06/30 05:13:24;;;;;;;3.97;2.67;;;21.60;99.90;;;;;;5032945;28;20029;-86
2022/06/30 05:15:50;;;;;;;5.07;3.17;;;21.60;99.90;;;;;;5034183;28;20469;-86
2022/06/30 05:18:15;;;;;;;2.90;2.55;;;21.60;99.90;;;;;;5034147;28;20028;-86
2022/06/30 05:20:42;;;;;;;7.88;3.00;;;21.60;99.90;;;;;;5034090;28;20025;-86
2022/06/30 05:23:09;;;;;;;5.13;2.90;;;21.60;99.90;;;;;;5033009;28;20029;-86
2022/06/30 05:28:21;;;;;;;;;;;21.60;99.90;;;;;;5034732;28;20029;-86
2022/06/30 05:30:50;;;;;;;5.13;3.28;;;21.60;99.90;;;;;;5032616;28;20015;-86
2022/06/30 05:33:20;;;;;;;4.45;2.95;;;21.60;99.90;;;;;;5033830;28;20096;-86
2022/06/30 05:35:51;;;;;;;4.15;3.20;;;21.60;99.90;;;;;;5033670;28;20038;-86
2022/06/30 05:38:17;;;;;;;5.15;3.00;;;21.60;99.90;;;;;;5032480;28;20022;-86
2022/06/30 05:40:45;;;;;;;4.07;2.60;;;21.60;99.90;;;;;;5032500;28;20025;-85
2022/06/30 05:43:15;;;;;;;5.35;2.38;;;21.60;99.90;;;;;;5032455;28;20030;-86
2022/06/30 05:45:42;;;;;;;4.75;3.00;;;21.60;99.90;;;;;;5033665;28;20033;-86
2022/06/30 05:48:07;;;;;;;4.43;2.45;;;21.60;99.90;;;;;;5033612;28;20083;-85
2022/06/30 05:50:33;;;;;;;4.63;2.78;;;21.60;99.90;;;;;;5033584;28;20022;-86
2022/06/30 05:52:59;;;;;;;4.53;3.22;;;21.60;99.90;;;;;;5032217;28;20389;-86
2022/06/30 05:55:25;;;;;;;4.10;2.75;;;21.60;99.90;;;;;;5032219;28;20485;-85
2022/06/30 05:57:54;;;;;;;3.60;3.03;;;21.70;99.90;;;;;;5032230;28;20021;-85
2022/06/30 06:00:21;;;;;;;3.60;2.97;;;21.70;99.90;;;;;;5032233;28;20520;-85
2022/06/30 06:02:47;;;;;;;6.03;2.85;;;21.60;99.90;;;;;;5033703;28;20516;-85
2022/06/30 06:05:14;;;;;;;5.40;3.00;;;21.70;99.90;;;;;;5032121;28;20029;-85
2022/06/30 06:07:40;;;;;;;4.80;2.90;;;21.70;99.90;;;;;;5032004;28;20409;-85
2022/06/30 06:10:06;;;;;;;3.92;2.50;;;21.70;99.90;;;;;;5032082;28;20024;-85
2022/06/30 06:12:32;;;;;;;4.65;2.53;;;21.70;99.90;;;;;;5032058;28;20032;-85
2022/06/30 06:14:57;;;;;;;3.80;2.60;;;21.70;99.90;;;;;;5033284;28;20025;-85
2022/06/30 06:17:23;;;;;;;5.45;2.78;;;21.70;99.90;;;;;;5031854;28;20393;-85
2022/06/30 06:19:49;;;;;;;4.18;2.90;;;21.70;99.90;;;;;;5032001;28;20029;-85
2022/06/30 06:22:15;;;;;;;3.67;2.40;;;21.70;99.90;;;;;;5031958;28;20026;-85
2022/06/30 06:24:40;;;;;;;3.08;2.25;;;21.70;99.90;;;;;;5031910;28;20025;-85
2022/06/30 06:27:06;;;;;;;4.10;2.90;;;21.70;99.90;;;;;;5033345;28;20083;-85
2022/06/30 06:29:32;;;;;;;6.80;2.83;;;21.70;99.90;;;;;;5033132;28;20030;-85
2022/06/30 06:31:57;;;;;;;4.32;2.70;;;21.70;99.90;;;;;;5033097;28;20026;-85
2022/06/30 06:34:23;;;;;;;5.35;2.70;;;21.70;99.90;;;;;;5031793;28;20041;-85
2022/06/30 06:36:49;;;;;;;4.38;2.88;;;21.70;99.90;;;;;;5032921;28;20045;-85
2022/06/30 06:39:14;;;;;;;8.02;2.92;;;21.70;99.90;;;;;;5031870;28;20392;-85
2022/06/30 06:41:40;;;;;;;6.47;3.50;;;21.70;99.90;;;;;;5033318;28;20493;-85
2022/06/30 06:44:06;;;;;;;3.95;2.75;;;21.70;99.90;;;;;;5031747;28;20179;-85
2022/06/30 06:46:32;;;;;;;5.95;3.30;;;21.70;99.90;;;;;;5031648;28;20033;-85
2022/06/30 06:48:59;;;;;;;5.75;2.75;;;21.70;99.90;;;;;;5032593;28;20026;-86
2022/06/30 06:51:25;;;;;;;5.75;2.88;;;21.80;99.90;;;;;;5031722;28;20548;-85
2022/06/30 06:53:51;;;;;;;5.25;3.00;;;21.80;99.90;;;;;;5032936;28;20025;-85
2022/06/30 06:56:17;;;;;;;4.75;3.00;;;21.80;99.90;;;;;;5032884;28;20396;-85
2022/06/30 06:58:43;;;;;;;5.32;2.92;;;21.80;99.90;;;;;;5032197;28;20037;-85
2022/06/30 07:01:08;;;;;;;5.60;2.78;;;21.80;99.90;;;;;;5033187;28;20025;-85
2022/06/30 07:03:34;;;;;;;5.00;2.88;;;21.80;99.90;;;;;;5031561;28;20083;-85
2022/06/30 07:06:00;;;;;;;5.35;3.10;;;21.80;99.90;;;;;;5031581;28;20021;-85
2022/06/30 07:08:26;;;;;;;4.80;2.70;;;21.80;99.90;;;;;;5031474;28;20032;-85
2022/06/30 07:10:52;;;;;;;5.65;2.90;;;21.80;99.90;;;;;;5033058;28;20021;-85
2022/06/30 07:13:17;;;;;;;6.38;2.95;;;21.80;99.90;;;;;;5031460;28;20028;-85
2022/06/30 07:15:43;;;;;;;4.63;3.15;;;21.80;99.90;;;;;;5048014;28;20370;-86
2022/06/30 07:18:09;;;;;;;5.95;2.78;;;21.90;99.90;;;;;;5031432;28;20480;-85
2022/06/30 07:20:34;;;;;;;6.22;2.90;;;21.90;99.90;;;;;;5031481;28;20374;-85
2022/06/30 07:23:00;;;;;;;4.70;2.90;;;21.90;99.90;;;;;;5031322;28;20025;-85
2022/06/30 07:25:25;;;;;;;3.55;2.70;;;21.90;99.90;;;;;;5031293;28;20073;-85
2022/06/30 07:27:51;;;;;;;3.53;2.97;;;21.90;99.90;;;;;;5032104;28;20495;-85
2022/06/30 07:30:17;;;;;;;3.92;3.15;;;21.90;99.90;;;;;;5034236;28;20017;-85
2022/06/30 07:32:42;;;;;;;3.33;3.00;;;21.90;99.90;;;;;;5036369;28;20025;-85
2022/06/30 07:35:11;;;;;;;7.32;3.05;;;21.90;99.90;;;;;;5035767;28;20456;-85
2022/06/30 07:37:40;;;;;;;6.22;3.35;;;21.90;99.90;;;;;;5034810;28;20568;-85
2022/06/30 07:40:07;;;;;;;5.03;3.38;;;21.90;99.90;;;;;;5034751;28;20029;-85
2022/06/30 07:42:33;;;;;;;4.65;3.33;;;21.90;99.90;;;;;;5035947;28;20036;-85
2022/06/30 07:44:59;;;;;;;9.40;3.20;;;21.90;99.90;;;;;;5034645;28;20032;-85
2022/06/30 07:47:25;;;;;;;6.88;3.40;;;21.90;99.90;;;;;;5034494;28;20038;-85
2022/06/30 07:49:51;;;;;;;3.80;3.22;;;21.90;99.90;;;;;;5034512;28;20052;-85
2022/06/30 07:52:17;;;;;;;5.07;3.70;;;22.00;99.90;;;;;;5034438;28;20389;-86
2022/06/30 07:54:43;;;;;;;6.00;3.88;;;22.00;99.90;;;;;;5034424;28;20030;-87
2022/06/30 07:57:09;;;;;;;10.95;3.10;;;22.00;99.90;;;;;;5034778;28;20124;-84
2022/06/30 07:59:34;;;;;;;12.50;3.15;;;22.20;99.90;;;;;;5034298;28;20480;-85
2022/06/30 08:02:00;;;;;;;10.02;3.55;;;22.50;99.90;;;;;;5034335;28;20033;-85
2022/06/30 08:04:26;;;;;;;6.72;3.25;;;22.50;99.90;;;;;;5034285;28;20034;-85
2022/06/30 08:06:52;;;;;;;8.57;3.45;;;22.40;99.90;;;;;;5035468;28;20033;-85
2022/06/30 08:09:18;;;;;;;8.65;3.60;;;22.40;99.90;;;;;;5034191;28;20388;-85
2022/06/30 08:11:44;;;;;;;7.93;4.40;;;22.40;99.90;;;;;;5034155;28;20028;-85
2022/06/30 08:14:10;;;;;;;8.50;4.22;;;22.30;99.90;;;;;;5034138;28;20025;-85
2022/06/30 08:16:36;;;;;;;5.68;3.53;;;22.30;99.90;;;;;;5034017;28;20017;-85
2022/06/30 08:19:03;;;;;;;9.43;3.78;;;22.20;99.90;;;;;;5035288;28;20049;-85
2022/06/30 08:21:29;;;;;;;6.55;4.28;;;22.20;99.90;;;;;;5033971;28;20025;-85
2022/06/30 08:23:55;;;;;;;5.97;4.13;;;22.20;99.90;;;;;;5035168;28;20017;-85
2022/06/30 08:26:21;;;;;;;5.15;4.00;;;22.20;99.90;;;;;;5033867;28;20029;-85
2022/06/30 08:28:47;;;;;;;5.10;3.67;;;22.20;99.90;;;;;;5033765;28;20098;-85
2022/06/30 08:31:15;;;;;;;5.30;3.70;;;22.20;99.90;;;;;;5035033;28;20026;-85
2022/06/30 08:33:40;;;;;;;5.72;3.90;;;22.20;99.90;;;;;;5034903;28;20013;-85
2022/06/30 08:36:08;;;;;;;7.53;3.72;;;22.20;99.90;;;;;;5034055;28;20048;-85
2022/06/30 08:38:33;;;;;;;6.90;4.03;;;22.20;99.90;;;;;;5033620;28;20555;-85
2022/06/30 08:43:44;;;;;;;8.25;4.53;;;22.30;99.90;;;;;;5035341;28;20032;-85
2022/06/30 08:46:11;;;;;;;5.88;3.90;;;22.30;99.90;;;;;;5034783;28;20033;-85
2022/06/30 08:48:38;;;;;;;6.72;4.10;;;22.30;99.90;;;;;;5033709;28;20040;-85
2022/06/30 08:51:05;;;;;;;6.65;3.85;;;22.40;99.90;;;;;;5034698;28;20021;-85
2022/06/30 08:53:39;;;;;;;5.55;3.92;;;22.40;99.90;;;;;;5033666;28;20024;-85
2022/06/30 08:56:05;;;;;;;5.18;4.15;;;22.40;99.90;;;;;;5033930;28;20550;-85
2022/06/30 08:58:32;;;;;;;9.75;3.70;;;22.40;99.90;;;;;;5033269;28;20124;-85
2022/06/30 09:00:58;;;;;;;6.32;3.70;;;22.40;99.90;;;;;;5033249;28;20403;-85
2022/06/30 09:03:23;;;;;;;5.05;3.60;;;22.50;99.90;;;;;;5033188;28;20029;-85
2022/06/30 09:05:49;;;;;;;5.70;3.35;;;22.50;99.90;;;;;;5034372;28;20025;-85
2022/06/30 09:08:17;;;;;;;6.78;3.75;;;22.50;99.90;;;;;;5032909;28;20025;-85
2022/06/30 09:10:47;;;;;;;8.38;4.10;;;22.50;99.90;;;;;;5033011;28;20115;-85
2022/06/30 09:13:13;;;;;;;5.30;4.40;;;22.50;99.90;;;;;;5032950;28;20053;-85
2022/06/30 09:15:39;;;;;;;8.50;3.95;;;22.60;99.90;;;;;;5033236;28;20057;-85
2022/06/30 09:18:06;;;;;;;9.45;4.07;;;22.50;99.90;;;;;;5032909;28;20033;-85
2022/06/30 09:20:40;;;;;;;4.45;3.80;;;22.60;99.90;;;;;;5032819;28;20029;-86
2022/06/30 09:23:24;;;;;;;4.50;3.28;;;22.60;99.90;;;;;;5032886;28;20103;-85
2022/06/30 09:25:52;;;;;;;4.05;3.28;;;22.60;99.90;;;;;;5033334;28;20123;-85
2022/06/30 09:28:41;;;;;;;6.40;3.50;;;22.60;99.90;;;;;;5033912;28;20021;-85
2022/06/30 09:31:07;;;;;;;7.55;3.15;;;22.60;99.90;;;;;;5032614;28;20021;-86
2022/06/30 09:33:35;;;;;;;5.47;3.55;;;22.70;99.90;;;;;;5032529;28;20072;-85
2022/06/30 09:36:19;;;;;;;4.63;3.20;;;22.70;99.90;;;;;;5032512;28;20052;-85
2022/06/30 09:39:03;;;;;;;5.32;3.78;;;22.70;99.90;;;;;;5032568;28;20472;-85
2022/06/30 09:41:35;;;;;;;7.47;3.47;;;22.80;99.90;;;;;;5033766;28;20034;-85
2022/06/30 09:44:17;;;;;;;5.80;3.60;;;22.80;99.90;;;;;;5032415;28;20029;-85
2022/06/30 09:47:06;;;;;;;5.72;3.30;;;22.80;99.90;;;;;;5032352;28;20052;-85
2022/06/30 09:49:41;;;;;;;5.00;3.38;;;22.80;99.90;;;;;;5032385;28;20028;-85
2022/06/30 09:52:18;;;;;;;5.25;3.45;;;22.80;99.90;;;;;;5032210;28;20026;-85
2022/06/30 09:55:03;;;;;;;5.07;3.50;;;22.80;99.90;;;;;;5032283;28;20385;-85
2022/06/30 09:57:32;;;;;;;4.93;3.45;;;22.80;99.90;;;;;;5033458;28;20085;-85
2022/06/30 10:00:09;;;;;;;3.20;2.90;;;22.80;99.90;;;;;;5032241;28;20029;-85
2022/06/30 10:02:37;;;;;;;4.28;3.38;;;22.90;99.90;;;;;;5033543;28;20481;-85
2022/06/30 10:05:04;;;;;;;3.97;3.58;;;22.90;99.90;;;;;;5033471;28;20388;-85
2022/06/30 10:07:35;;;;;;;4.05;2.78;;;22.90;99.90;;;;;;5032054;28;20099;-85
2022/06/30 10:10:07;;;;;;;5.90;2.97;;;22.90;99.90;;;;;;5033371;28;20531;-85
2022/06/30 10:12:33;;;;;;;4.65;3.30;;;23.00;99.90;;;;;;5032046;28;20472;-85
2022/06/30 10:14:59;;;;;;;3.72;3.20;;;23.00;99.90;;;;;;5033325;28;20041;-85
2022/06/30 10:17:27;;;;;;;4.20;3.25;;;23.00;99.90;;;;;;5032020;28;20034;-85
2022/06/30 10:19:54;;;;;;;4.60;3.20;;;23.00;99.90;;;;;;5031964;28;20396;-85
2022/06/30 10:22:22;;;;;;;3.40;3.10;;;23.10;99.90;;;;;;5031971;28;20080;-85
2022/06/30 10:24:49;;;;;;;3.88;3.10;;;23.10;99.90;;;;;;5033185;28;20017;-85
2022/06/30 10:27:15;;;;;;;4.03;3.22;;;23.10;99.90;;;;;;5031848;28;20117;-85
2022/06/30 10:29:56;;;;;;;4.70;3.08;;;23.10;99.90;;;;;;5033184;28;20025;-85
2022/06/30 10:32:41;;;;;;;4.70;3.35;;;23.10;99.90;;;;;;5031899;28;20060;-85
2022/06/30 10:35:29;;;;;;;5.15;3.45;;;23.10;99.90;;;;;;5031632;28;20040;-85
2022/06/30 10:37:59;;;;;;;7.05;3.30;;;23.10;99.90;;;;;;5033391;28;20105;-85
2022/06/30 10:40:49;;;;;;;5.03;2.90;;;23.10;99.90;;;;;;5031848;28;20034;-86
2022/06/30 10:43:16;;;;;;;6.53;3.53;;;23.20;99.90;;;;;;5033085;28;20025;-85
2022/06/30 10:46:02;;;;;;;4.07;3.40;;;23.20;99.90;;;;;;5031730;28;20112;-86
2022/06/30 10:48:53;;;;;;;5.63;3.30;;;23.20;99.90;;;;;;5032933;28;20113;-85
2022/06/30 10:51:19;;;;;;;4.32;2.70;;;23.30;99.90;;;;;;5048306;28;20620;-85
2022/06/30 10:53:45;;;;;;;5.05;3.30;;;23.30;99.90;;;;;;5031683;28;20392;-85
2022/06/30 10:56:10;;;;;;;6.28;3.55;;;23.30;99.90;;;;;;5031657;28;20113;-85
2022/06/30 10:58:36;;;;;;;4.90;3.50;;;23.30;99.90;;;;;;5031632;28;20068;-86
2022/06/30 11:01:04;;;;;;;5.43;3.65;;;23.30;99.90;;;;;;5032700;28;20121;-85
2022/06/30 11:03:32;;;;;;;7.90;3.83;;;23.30;99.90;;;;;;5033128;28;20029;-86
2022/06/30 11:06:01;;;;;;;6.25;3.13;;;23.40;99.90;;;;;;5034189;28;20033;-85
2022/06/30 11:08:36;;;;;;;4.93;3.40;;;23.40;99.90;;;;;;5036158;28;20097;-85
2022/06/30 11:11:20;;;;;;;5.60;2.97;;;23.40;99.90;;;;;;5035325;28;20049;-85
2022/06/30 11:14:07;;;;;;;6.35;2.67;;;23.40;99.90;;;;;;5035261;28;20055;-85
2022/06/30 11:16:38;;;;;;;4.68;2.90;;;23.40;99.90;;;;;;5025312;28;20029;-85
2022/06/30 11:19:12;;;;;;;4.60;3.85;;;23.40;99.90;;;;;;5035198;28;20025;-85
2022/06/30 11:21:45;;;;;;;6.40;3.40;;;23.40;99.90;;;;;;5035489;28;20052;-85
2022/06/30 11:24:11;;;;;;;6.18;3.40;;;23.40;99.90;;;;;;5035113;28;20029;-86
2022/06/30 11:29:26;;;;;;;4.00;3.45;;;23.50;99.90;;;;;;5036812;28;20036;-85
2022/06/30 11:31:59;;;;;;;5.90;3.50;;;23.50;99.90;;;;;;5035199;28;20052;-85
2022/06/30 11:34:25;;;;;;;5.07;3.38;;;23.50;99.90;;;;;;5034914;28;20052;-86
2022/06/30 11:36:52;;;;;;;6.53;2.90;;;23.50;99.90;;;;;;5035966;28;20037;-86
2022/06/30 11:39:19;;;;;;;4.90;3.25;;;23.50;99.90;;;;;;5036070;28;20021;-85
2022/06/30 11:41:57;;;;;;;4.90;3.50;;;23.60;99.90;;;;;;5034753;28;20461;-86
2022/06/30 11:44:40;;;;;;;5.57;2.72;;;23.50;99.90;;;;;;5034781;28;20033;-84
2022/06/30 11:47:07;;;;;;;5.32;2.30;;;23.80;99.90;;;;;;5035808;28;20109;-85
2022/06/30 11:49:42;;;;;;;5.20;2.15;;;24.50;99.90;;;;;;5035885;28;20022;-84
2022/06/30 11:52:17;;;;;;;5.38;2.15;;;24.50;99.90;;;;;;5034555;28;20064;-85
2022/06/30 11:54:55;;;;;;;6.80;2.80;;;24.40;99.90;;;;;;5034514;28;20056;-85
2022/06/30 11:57:31;;;;;;;9.73;2.50;;;24.20;99.90;;;;;;5034440;28;20064;-85
2022/06/30 12:00:15;;;;;;;6.13;2.90;;;24.20;99.90;;;;;;5035720;28;20480;-85
2022/06/30 12:02:43;;;;;;;6.97;3.03;;;24.10;99.90;;;;;;5035733;28;20547;-85
2022/06/30 12:05:11;;;;;;;4.85;2.47;;;24.00;99.90;;;;;;5035636;28;20025;-85
2022/06/30 12:07:38;;;;;;;3.67;2.78;;;24.00;99.90;;;;;;5034251;28;20079;-85
2022/06/30 12:10:09;;;;;;;4.38;2.70;;;23.90;99.90;;;;;;5034257;28;20098;-86
2022/06/30 12:12:36;;;;;;;6.32;2.80;;;23.90;99.90;;;;;;5034261;28;20018;-85
2022/06/30 12:15:14;;;;;;;5.40;2.67;;;23.90;99.90;;;;;;5034110;28;20112;-85
2022/06/30 12:17:44;;;;;;;6.95;3.00;;;23.90;99.90;;;;;;5035840;28;20083;-85
2022/06/30 12:20:12;;;;;;;3.95;2.33;;;23.90;99.90;;;;;;5034036;28;20041;-85
2022/06/30 12:22:45;;;;;;;9.52;2.47;;;24.00;99.90;;;;;;5034023;28;20553;-85
2022/06/30 12:25:13;;;;;;;5.18;2.50;;;24.00;99.90;;;;;;5033953;28;20033;-85
2022/06/30 12:27:53;;;;;;;4.32;2.83;;;24.10;99.90;;;;;;5033872;28;20025;-85
2022/06/30 12:30:34;;;;;;;6.40;2.50;;;24.10;99.90;;;;;;5033934;28;20445;-85
2022/06/30 12:33:03;;;;;;;3.38;2.15;;;24.10;99.90;;;;;;5034976;28;20026;-86
2022/06/30 12:35:34;;;;;;;7.50;2.85;;;24.10;99.90;;;;;;5034822;28;20098;-86
2022/06/30 12:38:11;;;;;;;5.30;2.28;;;24.10;99.90;;;;;;5033765;28;20564;-85
2022/06/30 12:40:38;;;;;;;3.92;2.30;;;24.20;99.90;;;;;;5033671;28;20022;-85
2022/06/30 12:43:04;;;;;;;5.78;2.45;;;24.20;99.90;;;;;;5033556;28;20029;-85
2022/06/30 12:45:36;;;;;;;5.38;2.50;;;24.20;99.90;;;;;;5033567;28;20118;-85
2022/06/30 12:48:03;;;;;;;6.38;2.25;;;24.30;99.90;;;;;;5033741;28;20029;-86
2022/06/30 12:50:32;;;;;;;4.60;2.65;;;24.30;99.90;;;;;;5033477;28;20021;-85
2022/06/30 12:53:25;;;;;;;6.50;2.35;;;24.40;99.90;;;;;;5033433;28;20398;-85
2022/06/30 12:56:23;;;;;;;4.03;2.17;;;24.40;99.90;;;;;;5034674;28;20028;-85
2022/06/30 12:59:00;;;;;;;8.68;2.17;;;24.40;99.90;;;;;;5023163;28;20049;-85
2022/06/30 13:01:37;;;;;;;4.68;2.25;;;24.50;99.90;;;;;;5033298;28;20053;-85
2022/06/30 13:04:05;;;;;;;5.57;2.30;;;24.50;99.90;;;;;;5034503;28;20036;-85
2022/06/30 13:06:37;;;;;;;3.80;2.10;;;24.60;99.90;;;;;;5033206;28;20393;-85
2022/06/30 13:09:06;;;;;;;3.70;1.88;;;24.70;99.90;;;;;;5033155;28;20481;-86